sensor_id;sensor_type;location;lat;lon;timestamp;temperature;humidity
6118;DHT22;3089;48.202;11.510;2024-02-16T00:02:15;7.50;99.90
6118;DHT22;3089;48.202;11.510;2024-02-16T00:04:44;7.40;99.90
6118;DHT22;3089;48.202;11.510;2024-02-16T00:07:12;7.40;99.90
6118;DHT22;3089;48.202;11.510;2024-02-16T00:09:40;7.40;99.90
6118;DHT22;3089;48.202;11.510;2024-02-16T00:12:08;7.30;99.90
6118;DHT22;3089;48.202;11.510;2024-02-16T00:14:36;7.30;99.90
6118;DHT22;3089;48.202;11.510;2024-02-16T00:17:06;7.30;99.90
6118;DHT22;3089;48.202;11.510;2024-02-16T00:19:36;7.30;99.90
6118;DHT22;3089;48.202;11.510;2024-02-16T00:22:05;7.30;99.90
6118;DHT22;3089;48.202;11.510;2024-02-16T00:24:34;7.20;99.90
6118;DHT22;3089;48.202;11.510;2024-02-16T00:27:03;7.20;99.90
6118;DHT22;3089;48.202;11.510;2024-02-16T00:29:32;7.20;99.90
6118;DHT22;3089;48.202;11.510;2024-02-16T00:32:00;7.20;99.90
6118;DHT22;3089;48.202;11.510;2024-02-16T00:34:29;7.20;99.90
6118;DHT22;3089;48.202;11.510;2024-02-16T00:36:57;7.10;99.90
6118;DHT22;3089;48.202;11.510;2024-02-16T00:39:25;7.10;99.90
6118;DHT22;3089;48.202;11.510;2024-02-16T00:41:53;7.10;99.90
6118;DHT22;3089;48.202;11.510;2024-02-16T00:44:21;7.10;99.90
6118;DHT22;3089;48.202;11.510;2024-02-16T00:46:49;7.10;99.90
6118;DHT22;3089;48.202;11.510;2024-02-16T00:49:17;7.00;99.90
6118;DHT22;3089;48.202;11.510;2024-02-16T00:51:47;7.00;99.90
6118;DHT22;3089;48.202;11.510;2024-02-16T00:54:15;7.00;99.90
6118;DHT22;3089;48.202;11.510;2024-02-16T00:56:43;7.00;99.90
6118;DHT22;3089;48.202;11.510;2024-02-16T00:59:11;7.00;99.90
6118;DHT22;3089;48.202;11.510;2024-02-16T01:01:39;6.90;99.90
6118;DHT22;3089;48.202;11.510;2024-02-16T01:04:06;6.90;99.90
6118;DHT22;3089;48.202;11.510;2024-02-16T01:06:35;7.00;99.90
6118;DHT22;3089;48.202;11.510;2024-02-16T01:09:04;6.90;99.90
6118;DHT22;3089;48.202;11.510;2024-02-16T01:11:32;6.80;99.90
6118;DHT22;3089;48.202;11.510;2024-02-16T01:14:00;6.80;99.90
6118;DHT22;3089;48.202;11.510;2024-02-16T01:16:29;6.80;99.90
6118;DHT22;3089;48.202;11.510;2024-02-16T01:18:56;6.90;99.90
6118;DHT22;3089;48.202;11.510;2024-02-16T01:21:25;6.90;99.90
6118;DHT22;3089;48.202;11.510;2024-02-16T01:23:53;6.90;99.90
6118;DHT22;3089;48.202;11.510;2024-02-16T01:26:22;6.90;99.90
6118;DHT22;3089;48.202;11.510;2024-02-16T01:28:51;6.90;99.90
6118;DHT22;3089;48.202;11.510;2024-02-16T01:31:19;6.80;99.90
6118;DHT22;3089;48.202;11.510;2024-02-16T01:33:47;6.80;99.90
6118;DHT22;3089;48.202;11.510;2024-02-16T01:36:15;6.80;99.90
6118;DHT22;3089;48.202;11.510;2024-02-16T01:38:43;6.80;99.90
6118;DHT22;3089;48.202;11.510;2024-02-16T01:41:11;6.70;99.90
6118;DHT22;3089;48.202;11.510;2024-02-16T01:43:43;6.70;99.90
6118;DHT22;3089;48.202;11.510;2024-02-16T01:46:11;6.70;99.90
6118;DHT22;3089;48.202;11.510;2024-02-16T01:48:39;6.70;99.90
6118;DHT22;3089;48.202;11.510;2024-02-16T01:51:08;6.70;99.90
6118;DHT22;3089;48.202;11.510;2024-02-16T01:53:38;6.70;99.90
6118;DHT22;3089;48.202;11.510;2024-02-16T01:56:06;6.70;99.90
6118;DHT22;3089;48.202;11.510;2024-02-16T01:58:35;6.70;99.90
6118;DHT22;3089;48.202;11.510;2024-02-16T02:01:04;6.70;99.90
6118;DHT22;3089;48.202;11.510;2024-02-16T02:03:32;6.60;99.90
6118;DHT22;3089;48.202;11.510;2024-02-16T02:06:01;6.60;99.90
6118;DHT22;3089;48.202;11.510;2024-02-16T02:08:30;6.60;99.90
6118;DHT22;3089;48.202;11.510;2024-02-16T02:10:58;6.70;99.90
6118;DHT22;3089;48.202;11.510;2024-02-16T02:13:26;6.70;99.90
6118;DHT22;3089;48.202;11.510;2024-02-16T02:15:55;6.70;99.90
6118;DHT22;3089;48.202;11.510;2024-02-16T02:18:25;6.60;99.90
6118;DHT22;3089;48.202;11.510;2024-02-16T02:20:53;6.60;99.90
6118;DHT22;3089;48.202;11.510;2024-02-16T02:23:22;6.60;99.90
6118;DHT22;3089;48.202;11.510;2024-02-16T02:25:50;6.50;99.90
6118;DHT22;3089;48.202;11.510;2024-02-16T02:28:19;6.60;99.90
6118;DHT22;3089;48.202;11.510;2024-02-16T02:30:50;6.60;99.90
6118;DHT22;3089;48.202;11.510;2024-02-16T02:33:20;6.60;99.90
6118;DHT22;3089;48.202;11.510;2024-02-16T02:35:48;6.50;99.90
6118;DHT22;3089;48.202;11.510;2024-02-16T02:38:16;6.50;99.90
6118;DHT22;3089;48.202;11.510;2024-02-16T02:40:45;6.50;99.90
6118;DHT22;3089;48.202;11.510;2024-02-16T02:43:13;6.50;99.90
6118;DHT22;3089;48.202;11.510;2024-02-16T02:45:42;6.50;99.90
6118;DHT22;3089;48.202;11.510;2024-02-16T02:48:10;6.50;99.90
6118;DHT22;3089;48.202;11.510;2024-02-16T02:50:38;6.50;99.90
6118;DHT22;3089;48.202;11.510;2024-02-16T02:53:06;6.60;99.90
6118;DHT22;3089;48.202;11.510;2024-02-16T02:55:34;6.50;99.90
6118;DHT22;3089;48.202;11.510;2024-02-16T02:58:03;6.60;99.90
6118;DHT22;3089;48.202;11.510;2024-02-16T03:00:31;6.60;99.90
6118;DHT22;3089;48.202;11.510;2024-02-16T03:02:59;6.50;99.90
6118;DHT22;3089;48.202;11.510;2024-02-16T03:05:28;6.50;99.90
6118;DHT22;3089;48.202;11.510;2024-02-16T03:07:56;6.50;99.90
6118;DHT22;3089;48.202;11.510;2024-02-16T03:10:25;6.40;99.90
6118;DHT22;3089;48.202;11.510;2024-02-16T03:12:53;6.40;99.90
6118;DHT22;3089;48.202;11.510;2024-02-16T03:15:23;6.40;99.90
6118;DHT22;3089;48.202;11.510;2024-02-16T03:17:51;6.40;99.90
6118;DHT22;3089;48.202;11.510;2024-02-16T03:20:19;6.40;99.90
6118;DHT22;3089;48.202;11.510;2024-02-16T03:22:49;6.40;99.90
6118;DHT22;3089;48.202;11.510;2024-02-16T03:25:17;6.30;99.90
6118;DHT22;3089;48.202;11.510;2024-02-16T03:27:45;6.30;99.90
6118;DHT22;3089;48.202;11.510;2024-02-16T03:30:13;6.30;99.90
6118;DHT22;3089;48.202;11.510;2024-02-16T03:32:42;6.30;99.90
6118;DHT22;3089;48.202;11.510;2024-02-16T03:35:10;6.30;99.90
6118;DHT22;3089;48.202;11.510;2024-02-16T03:37:38;6.30;99.90
6118;DHT22;3089;48.202;11.510;2024-02-16T03:40:07;6.20;99.90
6118;DHT22;3089;48.202;11.510;2024-02-16T03:42:36;6.30;99.90
6118;DHT22;3089;48.202;11.510;2024-02-16T03:45:05;6.30;99.90
6118;DHT22;3089;48.202;11.510;2024-02-16T03:47:33;6.30;99.90
6118;DHT22;3089;48.202;11.510;2024-02-16T03:50:03;6.30;99.90
6118;DHT22;3089;48.202;11.510;2024-02-16T03:52:31;6.30;99.90
6118;DHT22;3089;48.202;11.510;2024-02-16T03:54:59;6.20;99.90
6118;DHT22;3089;48.202;11.510;2024-02-16T03:57:27;6.20;99.90
6118;DHT22;3089;48.202;11.510;2024-02-16T03:59:55;6.30;99.90
6118;DHT22;3089;48.202;11.510;2024-02-16T04:02:23;6.20;99.90
6118;DHT22;3089;48.202;11.510;2024-02-16T04:04:51;6.20;99.90
6118;DHT22;3089;48.202;11.510;2024-02-16T04:07:20;6.20;99.90
6118;DHT22;3089;48.202;11.510;2024-02-16T04:09:48;6.20;99.90
6118;DHT22;3089;48.202;11.510;2024-02-16T04:12:16;6.20;99.90
6118;DHT22;3089;48.202;11.510;2024-02-16T04:14:44;6.20;99.90
6118;DHT22;3089;48.202;11.510;2024-02-16T04:17:12;6.20;99.90
6118;DHT22;3089;48.202;11.510;2024-02-16T04:19:40;6.30;99.90
6118;DHT22;3089;48.202;11.510;2024-02-16T04:22:09;6.30;99.90
6118;DHT22;3089;48.202;11.510;2024-02-16T04:24:38;6.30;99.90
6118;DHT22;3089;48.202;11.510;2024-02-16T04:27:06;6.30;99.90
6118;DHT22;3089;48.202;11.510;2024-02-16T04:29:35;6.20;99.90
6118;DHT22;3089;48.202;11.510;2024-02-16T04:32:03;6.20;99.90
6118;DHT22;3089;48.202;11.510;2024-02-16T04:34:31;6.20;99.90
6118;DHT22;3089;48.202;11.510;2024-02-16T04:37:00;6.20;99.90
6118;DHT22;3089;48.202;11.510;2024-02-16T04:39:28;6.20;99.90
6118;DHT22;3089;48.202;11.510;2024-02-16T04:41:57;6.20;99.90
6118;DHT22;3089;48.202;11.510;2024-02-16T04:44:25;6.10;99.90
6118;DHT22;3089;48.202;11.510;2024-02-16T04:46:53;6.10;99.90
6118;DHT22;3089;48.202;11.510;2024-02-16T04:49:21;6.10;99.90
6118;DHT22;3089;48.202;11.510;2024-02-16T04:51:50;6.20;99.90
6118;DHT22;3089;48.202;11.510;2024-02-16T04:54:18;6.20;99.90
6118;DHT22;3089;48.202;11.510;2024-02-16T04:56:46;6.20;99.90
6118;DHT22;3089;48.202;11.510;2024-02-16T04:59:16;6.20;99.90
6118;DHT22;3089;48.202;11.510;2024-02-16T05:01:44;6.20;99.90
6118;DHT22;3089;48.202;11.510;2024-02-16T05:04:13;6.20;99.90
6118;DHT22;3089;48.202;11.510;2024-02-16T05:06:44;6.20;99.90
6118;DHT22;3089;48.202;11.510;2024-02-16T05:09:13;6.10;99.90
6118;DHT22;3089;48.202;11.510;2024-02-16T05:11:43;6.10;99.90
6118;DHT22;3089;48.202;11.510;2024-02-16T05:14:12;6.10;99.90
6118;DHT22;3089;48.202;11.510;2024-02-16T05:16:44;6.10;99.90
6118;DHT22;3089;48.202;11.510;2024-02-16T05:19:12;6.10;99.90
6118;DHT22;3089;48.202;11.510;2024-02-16T05:21:40;6.10;99.90
6118;DHT22;3089;48.202;11.510;2024-02-16T05:24:08;6.10;99.90
6118;DHT22;3089;48.202;11.510;2024-02-16T05:26:36;6.10;99.90
6118;DHT22;3089;48.202;11.510;2024-02-16T05:29:05;6.10;99.90
6118;DHT22;3089;48.202;11.510;2024-02-16T05:31:32;6.10;99.90
6118;DHT22;3089;48.202;11.510;2024-02-16T05:34:02;6.10;99.90
6118;DHT22;3089;48.202;11.510;2024-02-16T05:36:29;6.10;99.90
6118;DHT22;3089;48.202;11.510;2024-02-16T05:39:02;6.10;99.90
6118;DHT22;3089;48.202;11.510;2024-02-16T05:41:46;6.10;99.90
6118;DHT22;3089;48.202;11.510;2024-02-16T05:44:14;6.20;99.90
6118;DHT22;3089;48.202;11.510;2024-02-16T05:46:44;6.10;99.90
6118;DHT22;3089;48.202;11.510;2024-02-16T05:49:13;6.10;99.90
6118;DHT22;3089;48.202;11.510;2024-02-16T05:51:42;6.10;99.90
6118;DHT22;3089;48.202;11.510;2024-02-16T05:54:26;6.10;99.90
6118;DHT22;3089;48.202;11.510;2024-02-16T05:56:55;6.10;99.90
6118;DHT22;3089;48.202;11.510;2024-02-16T05:59:23;6.10;99.90
6118;DHT22;3089;48.202;11.510;2024-02-16T06:01:51;6.10;99.90
6118;DHT22;3089;48.202;11.510;2024-02-16T06:04:21;6.00;99.90
6118;DHT22;3089;48.202;11.510;2024-02-16T06:06:49;6.00;99.90
6118;DHT22;3089;48.202;11.510;2024-02-16T06:09:17;6.00;99.90
6118;DHT22;3089;48.202;11.510;2024-02-16T06:11:45;6.00;99.90
6118;DHT22;3089;48.202;11.510;2024-02-16T06:14:13;6.00;99.90
6118;DHT22;3089;48.202;11.510;2024-02-16T06:16:45;6.00;99.90
6118;DHT22;3089;48.202;11.510;2024-02-16T06:19:14;6.00;99.90
6118;DHT22;3089;48.202;11.510;2024-02-16T06:21:43;6.00;99.90
6118;DHT22;3089;48.202;11.510;2024-02-16T06:24:11;6.00;99.90
6118;DHT22;3089;48.202;11.510;2024-02-16T06:26:39;6.10;99.90
6118;DHT22;3089;48.202;11.510;2024-02-16T06:29:07;6.10;99.90
6118;DHT22;3089;48.202;11.510;2024-02-16T06:31:35;6.10;99.90
6118;DHT22;3089;48.202;11.510;2024-02-16T06:34:03;6.10;99.90
6118;DHT22;3089;48.202;11.510;2024-02-16T06:36:31;6.10;99.90
6118;DHT22;3089;48.202;11.510;2024-02-16T06:39:01;6.10;99.90
6118;DHT22;3089;48.202;11.510;2024-02-16T06:41:29;6.10;99.90
6118;DHT22;3089;48.202;11.510;2024-02-16T06:43:57;6.10;99.90
6118;DHT22;3089;48.202;11.510;2024-02-16T06:46:25;6.10;99.90
6118;DHT22;3089;48.202;11.510;2024-02-16T06:48:54;6.20;99.90
6118;DHT22;3089;48.202;11.510;2024-02-16T06:51:23;6.30;99.90
6118;DHT22;3089;48.202;11.510;2024-02-16T06:53:51;6.20;99.90
6118;DHT22;3089;48.202;11.510;2024-02-16T06:56:20;6.30;99.90
6118;DHT22;3089;48.202;11.510;2024-02-16T06:58:48;6.70;99.90
6118;DHT22;3089;48.202;11.510;2024-02-16T07:01:17;6.30;99.90
6118;DHT22;3089;48.202;11.510;2024-02-16T07:03:45;6.20;99.90
6118;DHT22;3089;48.202;11.510;2024-02-16T07:06:13;6.10;99.90
6118;DHT22;3089;48.202;11.510;2024-02-16T07:08:41;6.10;99.90
6118;DHT22;3089;48.202;11.510;2024-02-16T07:11:10;6.20;99.90
6118;DHT22;3089;48.202;11.510;2024-02-16T07:13:41;6.20;99.90
6118;DHT22;3089;48.202;11.510;2024-02-16T07:16:10;6.20;99.90
6118;DHT22;3089;48.202;11.510;2024-02-16T07:18:38;6.30;99.90
6118;DHT22;3089;48.202;11.510;2024-02-16T07:21:06;6.30;99.90
6118;DHT22;3089;48.202;11.510;2024-02-16T07:23:36;6.30;99.90
6118;DHT22;3089;48.202;11.510;2024-02-16T07:26:04;6.40;99.90
6118;DHT22;3089;48.202;11.510;2024-02-16T07:28:34;6.60;99.90
6118;DHT22;3089;48.202;11.510;2024-02-16T07:31:03;7.10;99.90
6118;DHT22;3089;48.202;11.510;2024-02-16T07:33:31;8.10;99.90
6118;DHT22;3089;48.202;11.510;2024-02-16T07:36:00;8.80;99.90
6118;DHT22;3089;48.202;11.510;2024-02-16T07:38:28;7.50;99.90
6118;DHT22;3089;48.202;11.510;2024-02-16T07:40:56;7.00;99.90
6118;DHT22;3089;48.202;11.510;2024-02-16T07:43:24;6.80;99.90
6118;DHT22;3089;48.202;11.510;2024-02-16T07:45:52;6.80;99.90
6118;DHT22;3089;48.202;11.510;2024-02-16T07:48:22;6.70;99.90
6118;DHT22;3089;48.202;11.510;2024-02-16T07:50:50;6.70;99.90
6118;DHT22;3089;48.202;11.510;2024-02-16T07:53:18;6.80;99.90
6118;DHT22;3089;48.202;11.510;2024-02-16T07:55:46;6.70;99.90
6118;DHT22;3089;48.202;11.510;2024-02-16T07:58:14;6.80;99.90
6118;DHT22;3089;48.202;11.510;2024-02-16T08:00:42;6.80;99.90
6118;DHT22;3089;48.202;11.510;2024-02-16T08:03:10;6.80;99.90
6118;DHT22;3089;48.202;11.510;2024-02-16T08:05:39;6.80;99.90
6118;DHT22;3089;48.202;11.510;2024-02-16T08:08:07;6.80;99.90
6118;DHT22;3089;48.202;11.510;2024-02-16T08:10:35;6.90;99.90
6118;DHT22;3089;48.202;11.510;2024-02-16T08:13:03;7.00;99.90
6118;DHT22;3089;48.202;11.510;2024-02-16T08:15:31;7.00;99.90
6118;DHT22;3089;48.202;11.510;2024-02-16T08:17:59;7.10;99.90
6118;DHT22;3089;48.202;11.510;2024-02-16T08:20:27;7.20;99.90
6118;DHT22;3089;48.202;11.510;2024-02-16T08:22:57;7.30;99.90
6118;DHT22;3089;48.202;11.510;2024-02-16T08:25:26;7.40;99.90
6118;DHT22;3089;48.202;11.510;2024-02-16T08:27:54;7.50;99.90
6118;DHT22;3089;48.202;11.510;2024-02-16T08:30:22;7.60;99.90
6118;DHT22;3089;48.202;11.510;2024-02-16T08:32:51;7.70;99.90
6118;DHT22;3089;48.202;11.510;2024-02-16T08:35:20;7.80;99.90
6118;DHT22;3089;48.202;11.510;2024-02-16T08:37:49;8.00;99.90
6118;DHT22;3089;48.202;11.510;2024-02-16T08:40:18;8.10;99.90
6118;DHT22;3089;48.202;11.510;2024-02-16T08:42:46;8.10;99.90
6118;DHT22;3089;48.202;11.510;2024-02-16T08:45:14;8.00;99.90
6118;DHT22;3089;48.202;11.510;2024-02-16T08:47:44;8.30;99.90
6118;DHT22;3089;48.202;11.510;2024-02-16T08:50:16;9.20;99.90
6118;DHT22;3089;48.202;11.510;2024-02-16T08:52:44;9.50;99.90
6118;DHT22;3089;48.202;11.510;2024-02-16T08:55:12;9.60;99.90
6118;DHT22;3089;48.202;11.510;2024-02-16T08:57:41;9.60;99.90
6118;DHT22;3089;48.202;11.510;2024-02-16T09:00:11;9.40;99.90
6118;DHT22;3089;48.202;11.510;2024-02-16T09:02:39;9.40;99.90
6118;DHT22;3089;48.202;11.510;2024-02-16T09:05:07;9.50;99.90
6118;DHT22;3089;48.202;11.510;2024-02-16T09:07:37;9.30;99.90
6118;DHT22;3089;48.202;11.510;2024-02-16T09:10:06;9.50;99.90
6118;DHT22;3089;48.202;11.510;2024-02-16T09:12:34;9.70;99.90
6118;DHT22;3089;48.202;11.510;2024-02-16T09:15:04;10.00;99.90
6118;DHT22;3089;48.202;11.510;2024-02-16T09:17:32;10.20;99.90
6118;DHT22;3089;48.202;11.510;2024-02-16T09:20:00;10.30;99.90
6118;DHT22;3089;48.202;11.510;2024-02-16T09:22:31;10.50;99.90
6118;DHT22;3089;48.202;11.510;2024-02-16T09:25:01;10.70;99.90
6118;DHT22;3089;48.202;11.510;2024-02-16T09:27:30;10.70;99.90
6118;DHT22;3089;48.202;11.510;2024-02-16T09:29:58;10.80;99.90
6118;DHT22;3089;48.202;11.510;2024-02-16T09:32:27;10.60;99.90
6118;DHT22;3089;48.202;11.510;2024-02-16T09:34:55;10.60;99.90
6118;DHT22;3089;48.202;11.510;2024-02-16T09:37:24;11.50;99.90
6118;DHT22;3089;48.202;11.510;2024-02-16T09:39:51;12.10;99.90
6118;DHT22;3089;48.202;11.510;2024-02-16T09:42:22;11.60;99.90
6118;DHT22;3089;48.202;11.510;2024-02-16T09:44:54;11.70;99.90
6118;DHT22;3089;48.202;11.510;2024-02-16T09:47:23;11.90;99.90
6118;DHT22;3089;48.202;11.510;2024-02-16T09:49:57;11.70;99.90
6118;DHT22;3089;48.202;11.510;2024-02-16T09:52:25;11.70;99.90
6118;DHT22;3089;48.202;11.510;2024-02-16T09:54:53;12.30;99.90
6118;DHT22;3089;48.202;11.510;2024-02-16T09:57:22;12.10;99.90
6118;DHT22;3089;48.202;11.510;2024-02-16T09:59:50;12.30;99.90
6118;DHT22;3089;48.202;11.510;2024-02-16T10:02:18;12.30;99.90
6118;DHT22;3089;48.202;11.510;2024-02-16T10:04:46;12.10;99.90
6118;DHT22;3089;48.202;11.510;2024-02-16T10:07:15;12.30;99.90
6118;DHT22;3089;48.202;11.510;2024-02-16T10:09:43;12.40;99.90
6118;DHT22;3089;48.202;11.510;2024-02-16T10:12:18;12.20;99.90
6118;DHT22;3089;48.202;11.510;2024-02-16T10:14:54;12.40;99.90
6118;DHT22;3089;48.202;11.510;2024-02-16T10:17:22;12.30;99.90
6118;DHT22;3089;48.202;11.510;2024-02-16T10:19:55;12.80;99.90
6118;DHT22;3089;48.202;11.510;2024-02-16T10:22:25;12.90;99.90
6118;DHT22;3089;48.202;11.510;2024-02-16T10:24:53;13.10;99.90
6118;DHT22;3089;48.202;11.510;2024-02-16T10:27:21;13.30;99.90
6118;DHT22;3089;48.202;11.510;2024-02-16T10:29:53;13.00;99.90
6118;DHT22;3089;48.202;11.510;2024-02-16T10:32:22;12.80;99.90
6118;DHT22;3089;48.202;11.510;2024-02-16T10:34:51;12.80;99.90
6118;DHT22;3089;48.202;11.510;2024-02-16T10:37:21;12.80;99.90
6118;DHT22;3089;48.202;11.510;2024-02-16T10:39:52;13.20;99.90
6118;DHT22;3089;48.202;11.510;2024-02-16T10:42:26;13.30;99.90
6118;DHT22;3089;48.202;11.510;2024-02-16T10:44:55;13.20;99.90
6118;DHT22;3089;48.202;11.510;2024-02-16T10:47:23;13.10;99.90
6118;DHT22;3089;48.202;11.510;2024-02-16T10:49:51;13.00;99.90
6118;DHT22;3089;48.202;11.510;2024-02-16T10:52:20;13.40;99.90
6118;DHT22;3089;48.202;11.510;2024-02-16T10:54:51;13.60;99.90
6118;DHT22;3089;48.202;11.510;2024-02-16T10:57:20;13.70;99.90
6118;DHT22;3089;48.202;11.510;2024-02-16T10:59:48;13.90;99.90
6118;DHT22;3089;48.202;11.510;2024-02-16T11:02:18;14.10;99.90
6118;DHT22;3089;48.202;11.510;2024-02-16T11:04:46;14.00;99.90
6118;DHT22;3089;48.202;11.510;2024-02-16T11:07:16;14.00;99.90
6118;DHT22;3089;48.202;11.510;2024-02-16T11:09:46;14.20;99.90
6118;DHT22;3089;48.202;11.510;2024-02-16T11:12:16;14.30;99.90
6118;DHT22;3089;48.202;11.510;2024-02-16T11:14:46;14.20;99.90
6118;DHT22;3089;48.202;11.510;2024-02-16T11:17:16;14.40;99.90
6118;DHT22;3089;48.202;11.510;2024-02-16T11:19:48;14.30;99.90
6118;DHT22;3089;48.202;11.510;2024-02-16T11:22:18;14.30;99.90
6118;DHT22;3089;48.202;11.510;2024-02-16T11:24:48;14.30;99.90
6118;DHT22;3089;48.202;11.510;2024-02-16T11:27:18;14.50;99.90
6118;DHT22;3089;48.202;11.510;2024-02-16T11:29:49;14.70;99.90
6118;DHT22;3089;48.202;11.510;2024-02-16T11:32:18;14.90;99.90
6118;DHT22;3089;48.202;11.510;2024-02-16T11:34:47;15.30;99.90
6118;DHT22;3089;48.202;11.510;2024-02-16T11:37:16;15.20;99.90
6118;DHT22;3089;48.202;11.510;2024-02-16T11:39:44;15.20;99.90
6118;DHT22;3089;48.202;11.510;2024-02-16T11:42:20;15.30;99.90
6118;DHT22;3089;48.202;11.510;2024-02-16T11:44:52;15.20;99.90
6118;DHT22;3089;48.202;11.510;2024-02-16T11:47:22;15.30;99.90
6118;DHT22;3089;48.202;11.510;2024-02-16T11:50:01;15.30;99.90
6118;DHT22;3089;48.202;11.510;2024-02-16T11:52:29;15.50;99.90
6118;DHT22;3089;48.202;11.510;2024-02-16T11:54:57;15.50;99.90
6118;DHT22;3089;48.202;11.510;2024-02-16T11:57:30;15.50;99.90
6118;DHT22;3089;48.202;11.510;2024-02-16T11:59:58;15.60;99.90
6118;DHT22;3089;48.202;11.510;2024-02-16T12:02:26;15.00;99.90
6118;DHT22;3089;48.202;11.510;2024-02-16T12:04:58;14.90;99.90
6118;DHT22;3089;48.202;11.510;2024-02-16T12:07:30;14.70;99.90
6118;DHT22;3089;48.202;11.510;2024-02-16T12:10:00;14.60;99.90
6118;DHT22;3089;48.202;11.510;2024-02-16T12:12:31;15.00;99.90
6118;DHT22;3089;48.202;11.510;2024-02-16T12:15:00;15.20;99.90
6118;DHT22;3089;48.202;11.510;2024-02-16T12:17:28;15.10;99.90
6118;DHT22;3089;48.202;11.510;2024-02-16T12:19:56;14.80;99.90
6118;DHT22;3089;48.202;11.510;2024-02-16T12:22:25;14.70;99.90
6118;DHT22;3089;48.202;11.510;2024-02-16T12:24:52;14.90;99.90
6118;DHT22;3089;48.202;11.510;2024-02-16T12:27:20;15.10;99.90
6118;DHT22;3089;48.202;11.510;2024-02-16T12:29:50;15.10;99.90
6118;DHT22;3089;48.202;11.510;2024-02-16T12:32:19;15.30;99.90
6118;DHT22;3089;48.202;11.510;2024-02-16T12:34:47;15.10;99.90
6118;DHT22;3089;48.202;11.510;2024-02-16T12:37:15;15.20;99.90
6118;DHT22;3089;48.202;11.510;2024-02-16T12:39:44;15.30;99.90
6118;DHT22;3089;48.202;11.510;2024-02-16T12:42:14;15.30;99.90
6118;DHT22;3089;48.202;11.510;2024-02-16T12:44:42;15.20;99.90
6118;DHT22;3089;48.202;11.510;2024-02-16T12:47:12;15.20;99.90
6118;DHT22;3089;48.202;11.510;2024-02-16T12:49:42;15.30;99.90
6118;DHT22;3089;48.202;11.510;2024-02-16T12:52:10;15.30;99.90
6118;DHT22;3089;48.202;11.510;2024-02-16T12:54:38;15.40;99.90
6118;DHT22;3089;48.202;11.510;2024-02-16T12:57:12;15.40;99.90
6118;DHT22;3089;48.202;11.510;2024-02-16T12:59:41;15.50;99.90
6118;DHT22;3089;48.202;11.510;2024-02-16T13:02:09;15.60;99.90
6118;DHT22;3089;48.202;11.510;2024-02-16T13:04:38;15.80;99.90
6118;DHT22;3089;48.202;11.510;2024-02-16T13:07:07;15.70;99.90
6118;DHT22;3089;48.202;11.510;2024-02-16T13:09:35;15.80;99.90
6118;DHT22;3089;48.202;11.510;2024-02-16T13:12:04;15.80;99.90
6118;DHT22;3089;48.202;11.510;2024-02-16T13:14:32;15.80;99.90
6118;DHT22;3089;48.202;11.510;2024-02-16T13:17:00;15.80;99.90
6118;DHT22;3089;48.202;11.510;2024-02-16T13:19:28;15.70;99.90
6118;DHT22;3089;48.202;11.510;2024-02-16T13:21:57;15.80;99.90
6118;DHT22;3089;48.202;11.510;2024-02-16T13:24:25;15.70;99.90
6118;DHT22;3089;48.202;11.510;2024-02-16T13:26:54;15.80;99.90
6118;DHT22;3089;48.202;11.510;2024-02-16T13:29:22;15.80;99.90
6118;DHT22;3089;48.202;11.510;2024-02-16T13:31:51;15.60;99.90
6118;DHT22;3089;48.202;11.510;2024-02-16T13:34:19;15.70;99.90
6118;DHT22;3089;48.202;11.510;2024-02-16T13:36:47;15.60;99.90
6118;DHT22;3089;48.202;11.510;2024-02-16T13:39:16;15.70;99.90
6118;DHT22;3089;48.202;11.510;2024-02-16T13:41:46;15.60;99.90
6118;DHT22;3089;48.202;11.510;2024-02-16T13:44:15;15.60;99.90
6118;DHT22;3089;48.202;11.510;2024-02-16T13:46:45;15.60;99.90
6118;DHT22;3089;48.202;11.510;2024-02-16T13:49:14;15.50;99.90
6118;DHT22;3089;48.202;11.510;2024-02-16T13:51:42;15.50;99.90
6118;DHT22;3089;48.202;11.510;2024-02-16T13:54:10;15.40;99.90
6118;DHT22;3089;48.202;11.510;2024-02-16T13:56:39;15.30;99.90
6118;DHT22;3089;48.202;11.510;2024-02-16T13:59:07;15.30;99.90
6118;DHT22;3089;48.202;11.510;2024-02-16T14:01:36;15.30;99.90
6118;DHT22;3089;48.202;11.510;2024-02-16T14:04:04;15.20;99.90
6118;DHT22;3089;48.202;11.510;2024-02-16T14:06:32;15.20;99.90
6118;DHT22;3089;48.202;11.510;2024-02-16T14:09:02;15.10;99.90
6118;DHT22;3089;48.202;11.510;2024-02-16T14:11:47;15.10;99.90
6118;DHT22;3089;48.202;11.510;2024-02-16T14:14:15;15.00;99.90
6118;DHT22;3089;48.202;11.510;2024-02-16T14:16:58;14.90;99.90
6118;DHT22;3089;48.202;11.510;2024-02-16T14:19:26;14.80;99.90
6118;DHT22;3089;48.202;11.510;2024-02-16T14:21:54;14.70;99.90
6118;DHT22;3089;48.202;11.510;2024-02-16T14:24:22;14.80;99.90
6118;DHT22;3089;48.202;11.510;2024-02-16T14:26:51;14.80;99.90
6118;DHT22;3089;48.202;11.510;2024-02-16T14:29:21;14.80;99.90
6118;DHT22;3089;48.202;11.510;2024-02-16T14:31:49;14.80;99.90
6118;DHT22;3089;48.202;11.510;2024-02-16T14:34:17;15.00;99.90
6118;DHT22;3089;48.202;11.510;2024-02-16T14:36:45;15.20;99.90
6118;DHT22;3089;48.202;11.510;2024-02-16T14:39:13;15.40;99.90
6118;DHT22;3089;48.202;11.510;2024-02-16T14:41:43;15.40;99.90
6118;DHT22;3089;48.202;11.510;2024-02-16T14:44:12;15.50;99.90
6118;DHT22;3089;48.202;11.510;2024-02-16T14:46:40;15.50;99.90
6118;DHT22;3089;48.202;11.510;2024-02-16T14:49:08;15.50;99.90
6118;DHT22;3089;48.202;11.510;2024-02-16T14:51:40;15.40;99.90
6118;DHT22;3089;48.202;11.510;2024-02-16T14:54:08;15.50;99.90
6118;DHT22;3089;48.202;11.510;2024-02-16T14:56:36;15.40;99.90
6118;DHT22;3089;48.202;11.510;2024-02-16T14:59:04;15.40;99.90
6118;DHT22;3089;48.202;11.510;2024-02-16T15:01:34;15.30;99.90
6118;DHT22;3089;48.202;11.510;2024-02-16T15:04:02;15.30;99.90
6118;DHT22;3089;48.202;11.510;2024-02-16T15:06:30;15.10;99.90
6118;DHT22;3089;48.202;11.510;2024-02-16T15:09:00;15.10;99.90
6118;DHT22;3089;48.202;11.510;2024-02-16T15:11:30;15.00;99.90
6118;DHT22;3089;48.202;11.510;2024-02-16T15:13:58;14.80;99.90
6118;DHT22;3089;48.202;11.510;2024-02-16T15:16:26;14.70;99.90
6118;DHT22;3089;48.202;11.510;2024-02-16T15:18:55;14.60;99.90
6118;DHT22;3089;48.202;11.510;2024-02-16T15:21:25;14.50;99.90
6118;DHT22;3089;48.202;11.510;2024-02-16T15:23:53;14.50;99.90
6118;DHT22;3089;48.202;11.510;2024-02-16T15:26:22;14.40;99.90
6118;DHT22;3089;48.202;11.510;2024-02-16T15:28:50;14.30;99.90
6118;DHT22;3089;48.202;11.510;2024-02-16T15:31:18;14.20;99.90
6118;DHT22;3089;48.202;11.510;2024-02-16T15:33:47;14.20;99.90
6118;DHT22;3089;48.202;11.510;2024-02-16T15:36:17;14.20;99.90
6118;DHT22;3089;48.202;11.510;2024-02-16T15:38:45;14.20;99.90
6118;DHT22;3089;48.202;11.510;2024-02-16T15:41:13;14.10;99.90
6118;DHT22;3089;48.202;11.510;2024-02-16T15:43:41;14.20;99.90
6118;DHT22;3089;48.202;11.510;2024-02-16T15:46:09;14.00;99.90
6118;DHT22;3089;48.202;11.510;2024-02-16T15:48:37;13.90;99.90
6118;DHT22;3089;48.202;11.510;2024-02-16T15:51:05;13.90;99.90
6118;DHT22;3089;48.202;11.510;2024-02-16T15:53:36;13.80;99.90
6118;DHT22;3089;48.202;11.510;2024-02-16T15:56:04;13.80;99.90
6118;DHT22;3089;48.202;11.510;2024-02-16T15:58:32;13.70;99.90
6118;DHT22;3089;48.202;11.510;2024-02-16T16:01:01;13.70;99.90
6118;DHT22;3089;48.202;11.510;2024-02-16T16:03:29;13.70;99.90
6118;DHT22;3089;48.202;11.510;2024-02-16T16:05:57;13.60;99.90